Time;durP1;ratioP1;P1;durP2;ratioP2;P2;SDS_P1;SDS_P2;PMS_P1;PMS_P2;Temp;Humidity;BMP_temperature;BMP_pressure;BME280_temperature;BME280_humidity;BME280_pressure;Samples;Min_cycle;Max_cycle;Signal;HPM_P1;HPM_P2
2021/05/25 04:45:12;;;;;;;3.62;1.37;;;;;;;14.01;78.37;100844.32;1675258;84;21161;-37
2021/05/25 04:47:39;;;;;;;4.83;1.02;;;;;;;14.19;77.63;100840.70;1666421;84;21106;-37
2021/05/25 04:50:09;;;;;;;3.02;0.93;;;;;;;14.28;77.12;100837.16;1674784;84;21105;-36
2021/05/25 04:52:36;;;;;;;6.53;1.25;;;;;;;14.36;77.16;100837.97;1713772;82;21137;-36
2021/05/25 04:55:04;;;;;;;5.58;1.10;;;;;;;14.45;76.20;100830.47;1664448;84;21095;-41
2021/05/25 04:57:31;;;;;;;1.85;1.07;;;;;;;14.50;76.02;100827.39;1697886;82;21150;-43
2021/05/25 04:59:58;;;;;;;1.37;1.20;;;;;;;14.53;75.41;100820.77;1696235;82;21110;-37
2021/05/25 05:02:25;;;;;;;1.52;1.00;;;;;;;14.61;76.01;100817.20;1700804;83;21147;-36
2021/05/25 05:04:52;;;;;;;11.68;1.57;;;;;;;14.72;75.52;100820.16;1696534;83;21094;-38
2021/05/25 05:07:20;;;;;;;2.40;0.90;;;;;;;14.84;75.04;100820.05;1699914;82;21083;-38
2021/05/25 05:09:48;;;;;;;2.60;0.80;;;;;;;14.98;75.63;100823.90;1695795;82;21085;-45
2021/05/25 05:12:14;;;;;;;5.55;2.55;;;;;;;15.11;75.08;100822.43;1693062;82;21098;-39
2021/05/25 05:14:43;;;;;;;5.62;3.37;;;;;;;15.26;74.20;100825.36;1694169;82;21053;-38
2021/05/25 05:17:10;;;;;;;1.95;1.52;;;;;;;15.39;74.26;100823.01;1658541;84;21429;-40
2021/05/25 05:19:36;;;;;;;5.03;1.50;;;;;;;15.51;73.17;100826.39;1692112;83;21046;-45
2021/05/25 05:22:03;;;;;;;2.50;1.20;;;;;;;15.55;72.32;100830.30;1691891;82;21143;-45
2021/05/25 05:24:31;;;;;;;1.45;1.10;;;;;;;15.59;72.47;100835.08;1696103;82;21079;-44
2021/05/25 05:26:57;;;;;;;1.40;1.05;;;;;;;15.62;71.62;100836.38;1698271;82;21074;-44
2021/05/25 05:29:25;;;;;;;4.92;1.27;;;;;;;15.63;71.66;100835.06;1699910;82;21039;-44
2021/05/25 05:32:47;;;;;;;4.65;1.30;;;;;;;15.69;71.46;100826.20;1652631;83;21082;-44
2021/05/25 05:36:20;;;;;;;1.42;0.95;;;;;;;15.80;70.93;100823.43;1693347;82;21111;-44
2021/05/25 05:39:47;;;;;;;3.05;1.10;;;;;;;15.93;71.05;100820.59;1654581;84;21773;-39
2021/05/25 05:43:03;;;;;;;6.97;1.60;;;;;;;16.00;71.65;100811.27;1692677;82;21948;-39
2021/05/25 05:46:37;;;;;;;5.30;1.10;;;;;;;16.12;70.59;100811.09;1660993;84;21146;-41
2021/05/25 05:49:44;;;;;;;1.70;1.00;;;;;;;16.19;69.83;100811.45;1677155;82;21163;-45
2021/05/25 05:56:11;;;;;;;2.05;1.00;;;;;;;16.40;68.86;100808.46;1666028;84;21101;-37
2021/05/25 06:00:01;;;;;;;7.40;1.65;;;;;;;16.54;68.06;100806.07;1665346;84;21166;-43
2021/05/25 06:03:47;;;;;;;1.77;1.02;;;;;;;16.65;67.64;100802.35;1668556;84;21111;-43
2021/05/25 06:07:06;;;;;;;21.33;16.07;;;;;;;16.78;67.92;100800.40;1666982;84;21090;-43
2021/05/25 06:09:37;;;;;;;25.35;19.32;;;;;;;16.79;67.89;100800.81;1664039;84;21059;-44
2021/05/25 06:12:30;;;;;;;6.35;2.55;;;;;;;16.78;68.25;100796.89;1664192;84;21078;-44
2021/05/25 06:19:22;;;;;;;1.95;1.32;;;;;;;16.93;67.60;100797.91;1657682;84;21126;-44
2021/05/25 06:22:41;;;;;;;29.63;17.98;;;;;;;17.05;67.58;100798.14;1659667;84;21595;-37
2021/05/25 06:25:51;;;;;;;9.53;4.62;;;;;;;17.07;67.71;100797.68;1657763;84;21180;-45
2021/05/25 06:29:13;;;;;;;1.85;1.07;;;;;;;17.08;67.04;100793.67;1643316;84;21142;-38
2021/05/25 06:32:52;;;;;;;3.42;1.15;;;;;;;17.05;66.70;100784.92;1656118;84;21194;-40
2021/05/25 06:35:34;;;;;;;2.67;1.32;;;;;;;17.11;67.01;100780.88;1651679;84;21484;-44
2021/05/25 06:38:13;;;;;;;1.87;1.12;;;;;;;17.17;67.12;100780.75;1631244;86;21194;-43
2021/05/25 06:40:46;;;;;;;1.10;0.80;;;;;;;17.23;67.75;100770.92;1657680;84;21082;-44
2021/05/25 06:43:21;;;;;;;1.62;1.10;;;;;;;17.31;66.29;100774.72;1652977;83;21598;-38
2021/05/25 06:46:00;;;;;;;1.92;1.15;;;;;;;17.41;66.50;100776.29;1667977;83;21101;-38
2021/05/25 06:48:40;;;;;;;4.42;1.17;;;;;;;17.51;66.33;100772.98;1697523;82;21145;-38
2021/05/25 06:51:14;;;;;;;2.62;1.00;;;;;;;17.60;64.86;100774.58;1697057;82;21122;-44
2021/05/25 06:54:12;;;;;;;3.65;0.90;;;;;;;17.63;64.71;100769.23;1693552;82;21113;-43
2021/05/25 06:57:15;;;;;;;3.45;1.12;;;;;;;17.70;65.28;100766.87;1694744;82;21225;-43
2021/05/25 07:00:15;;;;;;;2.25;0.78;;;;;;;17.81;64.26;100772.83;1687921;82;21804;-44
2021/05/25 07:02:43;;;;;;;2.42;1.10;;;;;;;17.95;63.70;100771.19;1686790;83;21126;-44
2021/05/25 07:05:33;;;;;;;7.47;2.05;;;;;;;18.07;62.53;100770.90;1694178;82;21034;-43
2021/05/25 07:08:57;;;;;;;1.35;1.22;;;;;;;18.19;62.61;100767.09;1690853;83;21143;-38
2021/05/25 07:12:50;;;;;;;4.30;1.10;;;;;;;18.31;62.83;100772.09;1656091;84;21769;-38
2021/05/25 07:20:57;;;;;;;3.40;0.98;;;;;;;18.46;62.36;100761.59;1694615;82;21051;-44
2021/05/25 07:27:04;;;;;;;5.03;1.00;;;;;;;18.78;60.78;100747.52;1694478;82;21188;-44
2021/05/25 07:29:32;;;;;;;3.77;0.93;;;;;;;19.02;60.14;100745.55;1694082;83;21062;-38
2021/05/25 07:32:02;;;;;;;3.98;0.80;;;;;;;19.23;60.40;100736.56;1696787;82;21708;-44
2021/05/25 07:34:34;;;;;;;2.98;0.82;;;;;;;19.43;57.17;100742.17;1697089;81;21130;-43
2021/05/25 07:37:04;;;;;;;2.55;0.80;;;;;;;19.63;54.85;100748.23;1700584;82;21129;-44
2021/05/25 07:39:32;;;;;;;1.90;0.70;;;;;;;19.74;55.28;100749.24;1650337;83;21079;-38
2021/05/25 07:42:01;;;;;;;1.50;1.00;;;;;;;19.79;53.55;100742.88;1689712;82;21203;-44
2021/05/25 07:44:31;;;;;;;2.70;0.98;;;;;;;19.80;52.54;100741.09;1654237;83;21588;-43
2021/05/25 07:47:00;;;;;;;3.87;0.70;;;;;;;19.73;51.85;100733.78;1698039;82;21791;-37
2021/05/25 07:49:27;;;;;;;2.87;0.62;;;;;;;19.72;52.26;100735.16;1660444;84;21628;-37
2021/05/25 07:51:54;;;;;;;1.75;0.68;;;;;;;19.80;52.66;100720.72;1671122;84;21552;-44
2021/05/25 07:54:24;;;;;;;2.65;0.90;;;;;;;19.93;51.84;100723.39;1699319;82;21085;-43
2021/05/25 07:56:53;;;;;;;2.33;0.90;;;;;;;20.04;51.14;100731.02;1700511;82;21174;-38
2021/05/25 07:59:22;;;;;;;2.52;0.82;;;;;;;20.12;49.81;100727.67;1699365;82;21175;-41
2021/05/25 08:01:53;;;;;;;2.35;0.70;;;;;;;20.15;50.43;100736.85;1697629;82;21138;-43
2021/05/25 08:04:24;;;;;;;3.42;0.80;;;;;;;20.22;50.88;100743.29;1662872;83;21210;-42
2021/05/25 08:06:52;;;;;;;3.58;0.80;;;;;;;20.30;51.10;100741.27;1695140;82;21134;-44
2021/05/25 08:09:27;;;;;;;2.05;0.78;;;;;;;20.39;50.51;100744.47;1695746;82;21078;-38
2021/05/25 08:12:03;;;;;;;1.17;0.70;;;;;;;20.48;48.56;100746.00;1694612;82;21201;-38
2021/05/25 08:14:33;;;;;;;5.97;0.80;;;;;;;20.50;48.27;100747.27;1677512;83;21059;-38
2021/05/25 08:17:06;;;;;;;2.40;0.95;;;;;;;20.57;48.70;100748.33;1700472;83;21153;-38
2021/05/25 08:19:34;;;;;;;3.43;1.30;;;;;;;20.69;50.15;100749.23;1657845;83;21385;-45
2021/05/25 08:22:03;;;;;;;1.65;1.30;;;;;;;20.79;49.74;100745.80;1698738;82;21114;-38
2021/05/25 08:29:21;;;;;;;2.20;0.90;;;;;;;20.94;48.72;100749.72;1695243;82;21094;-45
2021/05/25 08:33:10;;;;;;;1.05;0.62;;;;;;;20.95;49.81;100748.80;1680203;82;21536;-45
2021/05/25 08:41:08;;;;;;;7.15;1.30;;;;;;;21.29;48.67;100741.82;1695434;82;21053;-43
2021/05/25 08:48:55;;;;;;;4.37;0.78;;;;;;;21.58;48.32;100724.75;1694259;82;21110;-39
2021/05/25 08:52:36;;;;;;;3.10;1.22;;;;;;;21.66;48.38;100721.30;1696523;83;21127;-36
2021/05/25 08:59:59;;;;;;;3.08;0.65;;;;;;;21.48;47.46;100718.03;1697083;83;21123;-38
2021/05/25 09:02:53;;;;;;;2.50;0.70;;;;;;;21.49;47.85;100717.97;1697019;83;21150;-43
2021/05/25 09:06:39;;;;;;;2.15;1.37;;;;;;;21.60;46.58;100722.88;1696368;83;21729;-45
2021/05/25 09:09:33;;;;;;;1.47;0.80;;;;;;;21.74;47.43;100729.88;1697556;81;21092;-38
2021/05/25 09:12:49;;;;;;;1.27;0.68;;;;;;;21.91;46.33;100720.33;1700527;83;21149;-44
2021/05/25 09:29:06;;;;;;;0.88;0.50;;;;;;;21.99;46.40;100715.58;1694045;82;21802;-38
2021/05/25 09:35:35;;;;;;;4.08;0.93;;;;;;;22.11;45.34;100712.91;1664841;84;21128;-43
2021/05/25 09:38:37;;;;;;;4.15;0.90;;;;;;;22.12;45.54;100715.97;1674230;82;21234;-43
2021/05/25 09:42:12;;;;;;;1.20;0.40;;;;;;;22.13;45.98;100713.70;1696154;82;21019;-43
2021/05/25 09:49:34;;;;;;;2.27;0.80;;;;;;;22.18;44.49;100701.92;1690674;82;21715;-39
2021/05/25 09:53:20;;;;;;;4.12;0.90;;;;;;;22.19;45.52;100708.13;1687113;83;22208;-38
2021/05/25 09:56:58;;;;;;;1.25;0.70;;;;;;;22.20;45.62;100703.19;1706060;82;21055;-45
2021/05/25 10:04:38;;;;;;;4.65;0.70;;;;;;;22.28;44.90;100693.95;1696448;82;21122;-38
2021/05/25 10:08:00;;;;;;;2.47;0.70;;;;;;;22.35;45.26;100683.90;1700424;82;21122;-43
2021/05/25 10:10:45;;;;;;;2.55;1.10;;;;;;;22.46;44.69;100685.64;1701364;82;21748;-42
2021/05/25 10:13:33;;;;;;;2.30;0.90;;;;;;;22.48;45.35;100680.23;1697168;82;21098;-43
2021/05/25 10:16:29;;;;;;;5.17;1.10;;;;;;;22.45;44.61;100680.39;1677209;82;21924;-43
2021/05/25 10:19:50;;;;;;;6.25;1.20;;;;;;;22.41;46.34;100681.44;1693162;83;21187;-43
2021/05/25 10:22:30;;;;;;;0.93;0.60;;;;;;;22.47;44.97;100685.17;1692359;82;21145;-38
2021/05/25 10:25:06;;;;;;;7.25;1.15;;;;;;;22.58;45.20;100682.91;1665464;82;21134;-43
2021/05/25 10:27:35;;;;;;;1.75;0.88;;;;;;;22.70;44.70;100674.84;1693579;83;21118;-41
2021/05/25 10:30:26;;;;;;;1.83;0.77;;;;;;;22.89;44.63;100665.58;1645508;82;21092;-42
2021/05/25 10:33:11;;;;;;;1.17;0.55;;;;;;;23.10;44.42;100657.94;1671142;83;21173;-46
2021/05/25 10:36:04;;;;;;;2.30;0.62;;;;;;;23.46;42.31;100646.47;1668727;82;21054;-37
2021/05/25 10:38:50;;;;;;;1.65;0.88;;;;;;;23.86;41.64;100642.28;1672991;83;21204;-38
2021/05/25 10:41:26;;;;;;;1.98;0.80;;;;;;;24.20;41.10;100627.23;1702162;82;21583;-37
2021/05/25 10:43:55;;;;;;;1.15;0.60;;;;;;;24.36;40.25;100619.32;1673066;83;21738;-38
2021/05/25 10:46:28;;;;;;;2.25;0.70;;;;;;;24.42;39.85;100612.31;1704437;82;21086;-40
2021/05/25 10:51:57;;;;;;;1.22;0.62;;;;;;;24.66;39.89;100612.82;1674045;82;21062;-43
2021/05/25 10:54:31;;;;;;;0.95;0.78;;;;;;;24.93;39.97;100604.65;1703893;82;21045;-42
2021/05/25 10:57:01;;;;;;;0.90;0.70;;;;;;;24.90;39.64;100607.48;1703330;83;21116;-43
2021/05/25 10:59:29;;;;;;;1.62;0.82;;;;;;;24.90;39.64;100607.48;1672043;83;21564;-38
2021/05/25 11:01:59;;;;;;;1.45;0.78;;;;;;;24.86;38.68;100603.71;1695268;83;21093;-38
2021/05/25 11:04:36;;;;;;;2.77;0.88;;;;;;;24.82;38.44;100603.03;1677882;83;21070;-38
2021/05/25 11:07:35;;;;;;;1.92;1.22;;;;;;;24.78;39.08;100605.47;1659140;84;21496;-37
2021/05/25 11:10:30;;;;;;;1.22;0.68;;;;;;;24.79;39.45;100609.01;1639409;86;21096;-37
2021/05/25 11:13:25;;;;;;;1.92;0.90;;;;;;;24.78;39.41;100610.83;1644020;86;21717;-42
2021/05/25 11:16:25;;;;;;;2.45;0.90;;;;;;;24.68;39.80;100618.47;1641101;85;21535;-43
2021/05/25 11:21:47;;;;;;;0.85;0.85;;;;;;;24.33;40.66;100607.41;1641781;86;21115;-43
2021/05/25 11:24:46;;;;;;;2.92;1.00;;;;;;;24.32;41.28;100604.34;1632206;86;21693;-38
2021/05/25 11:27:34;;;;;;;2.20;0.75;;;;;;;24.26;41.18;100604.19;1643078;86;21192;-38
2021/05/25 11:30:07;;;;;;;0.78;0.78;;;;;;;23.85;41.96;100599.15;1643755;86;21059;-38
2021/05/25 11:32:46;;;;;;;0.85;0.70;;;;;;;23.85;41.96;100599.15;1637597;86;21182;-42
2021/05/25 11:35:20;;;;;;;2.75;1.40;;;;;;;23.74;42.10;100599.30;1637666;86;21651;-42
2021/05/25 11:37:51;;;;;;;1.67;0.90;;;;;;;23.67;41.56;100596.54;1640776;87;21118;-42
2021/05/25 11:40:20;;;;;;;1.50;0.60;;;;;;;23.60;41.90;100589.27;1648748;85;21634;-42
2021/05/25 11:42:49;;;;;;;5.15;0.80;;;;;;;23.59;43.24;100578.17;1643765;86;21085;-41
2021/05/25 11:45:18;;;;;;;1.50;0.85;;;;;;;23.65;41.60;100585.91;1698145;83;21617;-42
2021/05/25 11:47:47;;;;;;;1.15;0.50;;;;;;;23.72;40.53;100583.35;1692615;84;21259;-43
2021/05/25 11:50:15;;;;;;;1.00;0.68;;;;;;;23.78;40.09;100585.72;1658469;84;21536;-43
2021/05/25 11:52:43;;;;;;;1.40;0.82;;;;;;;23.82;40.92;100583.73;1706139;83;21118;-36
2021/05/25 11:55:14;;;;;;;2.42;0.55;;;;;;;23.79;40.00;100579.42;1694917;82;21531;-39
2021/05/25 11:57:47;;;;;;;0.93;0.50;;;;;;;23.76;39.91;100579.56;1695541;82;21119;-43
2021/05/25 12:00:23;;;;;;;2.08;0.70;;;;;;;23.78;40.38;100584.85;1713585;82;21581;-39
2021/05/25 12:02:55;;;;;;;2.75;0.85;;;;;;;23.80;41.34;100583.82;1706913;82;21129;-42
2021/05/25 12:05:29;;;;;;;;;;;;;;;23.83;39.78;100577.00;1710498;82;21065;-39
2021/05/25 12:07:57;;;;;;;0.78;0.70;;;;;;;23.85;40.92;100572.44;1707326;82;20501;-44
2021/05/25 12:10:29;;;;;;;1.42;0.70;;;;;;;23.83;40.76;100565.42;1706890;82;21392;-43
2021/05/25 12:13:11;;;;;;;2.15;0.80;;;;;;;23.83;40.97;100571.66;1690551;83;21424;-44
2021/05/25 12:15:43;;;;;;;1.35;0.88;;;;;;;23.85;40.20;100572.44;1702886;83;21083;-44
2021/05/25 12:18:13;;;;;;;1.17;0.80;;;;;;;23.85;40.33;100572.44;1697340;83;21688;-38
2021/05/25 12:20:42;;;;;;;3.87;0.68;;;;;;;23.88;41.06;100568.73;1697004;82;21018;-43
2021/05/25 12:23:15;;;;;;;3.17;0.68;;;;;;;23.89;41.24;100555.31;1701107;82;21548;-38
2021/05/25 12:25:51;;;;;;;0.78;0.70;;;;;;;23.93;40.30;100556.00;1703518;82;21035;-39
2021/05/25 12:28:22;;;;;;;0.65;0.53;;;;;;;23.99;40.20;100553.48;1695255;83;21068;-38
2021/05/25 12:30:54;;;;;;;1.07;0.60;;;;;;;24.04;40.25;100562.14;1663307;85;21015;-44
2021/05/25 12:33:27;;;;;;;2.47;0.80;;;;;;;24.03;39.66;100553.73;1645561;86;21669;-38
2021/05/25 12:36:15;;;;;;;4.17;1.00;;;;;;;24.05;40.18;100548.69;1652950;86;21562;-37
2021/05/25 12:39:07;;;;;;;1.05;0.75;;;;;;;24.10;39.96;100551.12;1672985;85;21134;-43
2021/05/25 12:41:46;;;;;;;0.60;0.60;;;;;;;24.16;40.61;100545.47;1624318;87;21098;-37
2021/05/25 12:44:19;;;;;;;1.32;0.70;;;;;;;24.21;41.05;100547.91;1676484;85;21582;-38
2021/05/25 12:46:59;;;;;;;1.90;0.65;;;;;;;24.27;40.29;100544.42;1676323;85;21147;-38
2021/05/25 12:49:41;;;;;;;0.80;0.40;;;;;;;24.45;39.53;100547.10;1684363;84;21417;-37
2021/05/25 12:52:27;;;;;;;2.30;0.60;;;;;;;24.55;39.42;100535.83;1682944;83;21110;-37
2021/05/25 12:55:01;;;;;;;1.12;0.85;;;;;;;24.46;40.66;100533.64;1653373;85;21062;-37
2021/05/25 12:57:47;;;;;;;1.67;0.90;;;;;;;24.30;40.66;100531.39;1634569;85;21118;-38
2021/05/25 13:00:18;;;;;;;1.72;0.70;;;;;;;24.29;41.14;100526.48;1649597;86;21058;-43
2021/05/25 13:02:48;;;;;;;0.40;0.40;;;;;;;24.40;41.13;100529.48;1646284;86;21645;-43
2021/05/25 13:05:15;;;;;;;3.72;0.70;;;;;;;24.44;40.83;100518.16;1655430;86;21074;-44
2021/05/25 13:07:54;;;;;;;1.15;0.70;;;;;;;24.44;40.77;100518.64;1668558;86;21173;-38
2021/05/25 13:10:31;;;;;;;2.00;0.72;;;;;;;24.49;40.04;100511.23;1646687;86;21085;-44
2021/05/25 13:13:07;;;;;;;2.30;0.78;;;;;;;24.56;40.39;100505.94;1650504;86;21102;-38
2021/05/25 13:15:37;;;;;;;3.75;0.65;;;;;;;24.59;41.02;100501.77;1640972;86;21022;-43
2021/05/25 13:18:05;;;;;;;0.93;0.80;;;;;;;24.54;40.29;100501.16;1670359;86;21676;-44
2021/05/25 13:20:32;;;;;;;3.92;0.78;;;;;;;24.49;40.74;100506.75;1666053;84;21079;-40
2021/05/25 13:22:59;;;;;;;1.05;0.80;;;;;;;24.49;40.80;100500.55;1657279;84;21164;-43
2021/05/25 13:25:34;;;;;;;0.95;0.80;;;;;;;24.50;40.78;100495.10;1644276;84;21103;-38
2021/05/25 13:28:01;;;;;;;0.98;0.70;;;;;;;24.51;40.26;100492.81;1698932;84;21453;-44
2021/05/25 13:30:32;;;;;;;1.20;0.60;;;;;;;24.57;39.53;100488.46;1699226;84;21042;-42
2021/05/25 13:32:59;;;;;;;0.90;0.70;;;;;;;24.57;39.53;100488.46;1699179;84;21137;-44
2021/05/25 13:35:26;;;;;;;2.83;0.80;;;;;;;24.60;40.02;100483.44;1698738;84;21066;-44
2021/05/25 13:37:53;;;;;;;0.72;0.72;;;;;;;24.58;39.90;100486.17;1699258;84;21142;-44
2021/05/25 13:40:20;;;;;;;3.50;0.85;;;;;;;24.63;40.21;100487.27;1699182;83;21589;-42
2021/05/25 13:42:48;;;;;;;3.85;0.98;;;;;;;24.75;40.25;100483.05;1699394;84;21101;-37
2021/05/25 13:45:16;;;;;;;1.40;0.88;;;;;;;24.85;39.56;100486.94;1699586;84;21050;-38
2021/05/25 13:47:43;;;;;;;2.30;0.75;;;;;;;25.03;39.42;100485.03;1699752;84;21652;-44
2021/05/25 13:50:26;;;;;;;0.62;0.60;;;;;;;25.31;38.85;100486.55;1696668;84;21125;-44
2021/05/25 13:52:55;;;;;;;2.75;0.70;;;;;;;25.50;37.92;100478.77;1673032;83;21086;-44
2021/05/25 13:55:25;;;;;;;0.90;0.70;;;;;;;25.60;38.52;100477.27;1705605;83;21047;-38
